Time;durP1;ratioP1;P1;durP2;ratioP2;P2;SDS_P1;SDS_P2;PMS_P1;PMS_P2;Temp;Humidity;BMP_temperature;BMP_pressure;BME280_temperature;BME280_humidity;BME280_pressure;Samples;Min_cycle;Max_cycle;Signal;HPM_P1;HPM_P2
2021/03/21 00:00:11;;;;;;;37.85;23.08;;;6.70;89.00;;;;;;4972957;28;20888;-73
2021/03/21 00:02:37;;;;;;;35.33;22.70;;;6.70;90.00;;;;;;4972782;28;20414;-73
2021/03/21 00:05:03;;;;;;;36.42;25.02;;;6.70;89.40;;;;;;4971984;28;20483;-72
2021/03/21 00:07:29;;;;;;;44.40;24.83;;;6.70;89.80;;;;;;4972875;28;20483;-74
2021/03/21 00:09:54;;;;;;;39.90;23.70;;;6.70;92.50;;;;;;4972695;28;21011;-74
2021/03/21 00:12:20;;;;;;;40.13;25.90;;;7.00;86.60;;;;;;4973191;28;20388;-72
2021/03/21 00:14:46;;;;;;;45.77;26.83;;;7.00;87.30;;;;;;4972530;28;20396;-72
2021/03/21 00:17:11;;;;;;;46.85;29.48;;;6.90;88.20;;;;;;4973862;28;20388;-74
2021/03/21 00:19:37;;;;;;;48.72;30.02;;;6.70;91.70;;;;;;4973437;28;20404;-74
2021/03/21 00:22:03;;;;;;;47.22;29.50;;;6.60;94.30;;;;;;4988046;28;20411;-74
2021/03/21 00:24:28;;;;;;;51.15;31.52;;;6.70;94.50;;;;;;4972559;28;20400;-73
2021/03/21 00:26:54;;;;;;;52.77;31.30;;;6.50;95.30;;;;;;4958479;28;20700;-74
2021/03/21 00:29:19;;;;;;;50.83;32.00;;;6.60;96.20;;;;;;4964373;28;20400;-73
2021/03/21 00:31:45;;;;;;;53.70;32.33;;;6.50;97.20;;;;;;4971232;28;20408;-74
2021/03/21 00:34:10;;;;;;;55.10;34.27;;;6.60;97.40;;;;;;4972366;28;20384;-73
2021/03/21 00:36:36;;;;;;;52.20;34.07;;;6.70;94.40;;;;;;4972074;28;20399;-73
2021/03/21 00:39:04;;;;;;;53.93;32.73;;;6.60;94.10;;;;;;4972326;28;20421;-72
2021/03/21 00:41:30;;;;;;;53.47;32.80;;;6.90;92.70;;;;;;4971537;28;20902;-72
2021/03/21 00:43:57;;;;;;;61.72;35.20;;;6.90;90.20;;;;;;4987929;28;20392;-72
2021/03/21 00:46:24;;;;;;;58.45;32.55;;;6.90;92.30;;;;;;4972053;28;20407;-72
2021/03/21 00:48:51;;;;;;;61.00;35.75;;;6.80;93.20;;;;;;4972080;28;20436;-72
2021/03/21 00:51:17;;;;;;;59.67;34.78;;;6.60;97.60;;;;;;4972943;28;20408;-72
2021/03/21 00:53:43;;;;;;;65.13;36.25;;;6.60;95.80;;;;;;4973437;28;20391;-73
2021/03/21 00:56:20;;;;;;;62.95;35.80;;;6.60;96.60;;;;;;4972894;28;20412;-72
2021/03/21 00:58:46;;;;;;;61.38;35.85;;;6.60;96.90;;;;;;4987580;28;20373;-72
2021/03/21 01:01:11;;;;;;;61.85;34.60;;;6.50;95.20;;;;;;4972489;28;20864;-72
2021/03/21 01:03:37;;;;;;;59.90;33.57;;;6.50;95.50;;;;;;4972192;28;20876;-73
2021/03/21 01:06:06;;;;;;;62.70;37.17;;;6.60;94.80;;;;;;4972169;28;20396;-72
2021/03/21 01:08:35;;;;;;;62.83;37.00;;;6.50;95.10;;;;;;4974003;28;20461;-73
2021/03/21 01:11:08;;;;;;;60.00;33.85;;;6.50;98.00;;;;;;4975419;28;20408;-72
2021/03/21 01:13:34;;;;;;;62.50;36.67;;;6.60;93.60;;;;;;4975133;28;20498;-73
2021/03/21 01:16:01;;;;;;;64.25;37.97;;;6.60;94.30;;;;;;4975248;28;20385;-72
2021/03/21 01:18:30;;;;;;;66.80;37.80;;;6.40;99.20;;;;;;4973985;28;20900;-73
2021/03/21 01:20:56;;;;;;;60.78;36.45;;;6.50;99.90;;;;;;4971837;28;20410;-73
2021/03/21 01:23:21;;;;;;;60.63;36.30;;;6.70;96.20;;;;;;4970747;28;20460;-72
2021/03/21 01:25:48;;;;;;;61.40;35.80;;;6.50;96.70;;;;;;4971890;28;20957;-73
2021/03/21 01:28:30;;;;;;;59.10;35.35;;;6.50;98.60;;;;;;4972088;28;20392;-73
2021/03/21 01:30:58;;;;;;;57.92;35.10;;;6.60;97.80;;;;;;4971460;28;20915;-73
2021/03/21 01:33:29;;;;;;;60.78;34.92;;;6.60;96.80;;;;;;4972026;28;20765;-73
2021/03/21 01:35:55;;;;;;;57.13;33.80;;;6.50;98.20;;;;;;4986818;28;20385;-72
2021/03/21 01:38:21;;;;;;;52.17;32.13;;;6.60;96.60;;;;;;4971781;28;20398;-72
2021/03/21 01:40:49;;;;;;;55.83;33.35;;;6.50;95.60;;;;;;4981345;28;20396;-72
2021/03/21 01:43:17;;;;;;;51.63;31.47;;;6.60;95.50;;;;;;4979313;28;20429;-72
2021/03/21 01:45:46;;;;;;;49.15;29.25;;;6.60;93.80;;;;;;4968777;28;20394;-72
2021/03/21 01:48:18;;;;;;;48.95;30.75;;;6.60;92.10;;;;;;4979477;28;20557;-72
2021/03/21 01:50:55;;;;;;;55.30;32.78;;;6.70;91.80;;;;;;4987276;28;20837;-72
2021/03/21 01:53:22;;;;;;;51.70;32.28;;;6.50;95.00;;;;;;4986144;28;20468;-73
2021/03/21 01:55:49;;;;;;;53.60;31.80;;;6.40;98.50;;;;;;4986321;28;20472;-73
2021/03/21 01:58:17;;;;;;;52.63;31.42;;;6.50;97.50;;;;;;4989355;28;20393;-73
2021/03/21 02:00:43;;;;;;;53.10;31.52;;;6.60;95.80;;;;;;4982156;28;20471;-72
2021/03/21 02:03:08;;;;;;;50.60;30.20;;;6.80;92.50;;;;;;4978793;28;20431;-74
2021/03/21 02:05:38;;;;;;;50.03;30.35;;;6.80;91.90;;;;;;4975825;28;20400;-73
2021/03/21 02:08:11;;;;;;;47.60;29.50;;;6.80;90.80;;;;;;4974908;28;20403;-74
2021/03/21 02:10:55;;;;;;;49.15;29.23;;;6.70;91.80;;;;;;4976424;28;20421;-73
2021/03/21 02:13:39;;;;;;;45.67;29.23;;;6.80;90.00;;;;;;4974623;28;20450;-73
2021/03/21 02:16:18;;;;;;;43.45;27.00;;;6.80;91.60;;;;;;4974541;28;20408;-73
2021/03/21 02:19:09;;;;;;;45.42;27.63;;;6.80;89.10;;;;;;4974005;28;20400;-72
2021/03/21 02:21:42;;;;;;;51.20;29.75;;;6.70;92.00;;;;;;4974874;28;20385;-73
2021/03/21 02:24:25;;;;;;;45.33;28.60;;;6.70;92.00;;;;;;4974618;28;20406;-73
2021/03/21 02:27:04;;;;;;;44.83;28.40;;;6.70;93.40;;;;;;4974647;28;20432;-74
2021/03/21 02:29:48;;;;;;;40.55;24.40;;;6.70;91.70;;;;;;4973267;28;20757;-73
2021/03/21 02:32:29;;;;;;;41.38;25.70;;;6.70;90.90;;;;;;4974476;28;20432;-73
2021/03/21 02:35:04;;;;;;;40.10;24.23;;;6.70;92.00;;;;;;4974210;28;20878;-73
2021/03/21 02:37:35;;;;;;;42.00;26.45;;;6.70;92.60;;;;;;4974427;28;20425;-73
2021/03/21 02:40:32;;;;;;;39.80;25.10;;;6.70;93.30;;;;;;4974127;28;20528;-73
2021/03/21 02:43:01;;;;;;;36.13;22.08;;;6.70;92.70;;;;;;4974085;28;20387;-73
2021/03/21 02:45:31;;;;;;;38.70;23.57;;;6.80;91.80;;;;;;4969565;28;21006;-73
2021/03/21 02:48:12;;;;;;;36.50;22.17;;;6.80;92.10;;;;;;4963381;28;20459;-73
2021/03/21 02:50:49;;;;;;;34.58;21.85;;;6.60;93.80;;;;;;4972678;28;20412;-73
2021/03/21 02:53:42;;;;;;;36.85;22.40;;;6.50;95.40;;;;;;4973886;28;20396;-73
2021/03/21 02:56:12;;;;;;;37.25;22.05;;;6.60;97.00;;;;;;4974471;28;20391;-73
2021/03/21 02:58:52;;;;;;;36.90;22.10;;;6.60;95.00;;;;;;4972988;28;20388;-73
2021/03/21 03:01:28;;;;;;;35.60;20.60;;;6.40;98.90;;;;;;4974072;28;20502;-73
2021/03/21 03:03:59;;;;;;;32.45;20.60;;;6.60;95.50;;;;;;4973904;28;20408;-73
2021/03/21 03:06:32;;;;;;;33.63;20.45;;;6.60;93.50;;;;;;4973667;28;20411;-73
2021/03/21 03:09:08;;;;;;;33.92;20.50;;;6.60;96.50;;;;;;4973450;28;20449;-73
2021/03/21 03:11:50;;;;;;;35.10;20.00;;;6.50;97.40;;;;;;4973868;28;20418;-73
2021/03/21 03:14:21;;;;;;;33.13;20.45;;;6.60;95.20;;;;;;4972062;28;20463;-73
2021/03/21 03:17:06;;;;;;;30.27;19.85;;;6.70;93.90;;;;;;4988490;28;20397;-74
2021/03/21 03:19:46;;;;;;;31.45;19.77;;;6.60;95.20;;;;;;4973884;28;20792;-74
2021/03/21 03:22:38;;;;;;;31.83;19.05;;;6.60;96.30;;;;;;4972996;28;20421;-74
2021/03/21 03:25:28;;;;;;;30.13;18.67;;;6.60;95.10;;;;;;4973345;28;20960;-73
2021/03/21 03:28:10;;;;;;;32.17;19.92;;;6.60;96.00;;;;;;4955499;28;20477;-73
2021/03/21 03:30:45;;;;;;;33.42;19.42;;;6.70;93.20;;;;;;4973390;28;20485;-73
2021/03/21 03:33:11;;;;;;;30.67;19.00;;;6.60;94.10;;;;;;4973421;28;20400;-73
2021/03/21 03:35:37;;;;;;;29.67;19.27;;;6.50;95.50;;;;;;4973582;28;20435;-73
2021/03/21 03:38:06;;;;;;;32.67;18.73;;;6.40;97.10;;;;;;4973072;28;20904;-73
2021/03/21 03:40:35;;;;;;;30.05;18.70;;;6.40;99.00;;;;;;4972996;28;20487;-73
2021/03/21 03:43:27;;;;;;;31.43;19.30;;;6.60;94.50;;;;;;4972597;28;20466;-73
2021/03/21 03:45:58;;;;;;;32.43;19.83;;;6.70;92.60;;;;;;4972919;28;20404;-73
2021/03/21 03:48:49;;;;;;;29.40;18.70;;;6.60;94.40;;;;;;4972668;28;20427;-72
2021/03/21 03:51:31;;;;;;;30.92;18.08;;;6.50;96.40;;;;;;4973934;28;20408;-72
2021/03/21 03:54:05;;;;;;;31.92;18.90;;;6.50;96.50;;;;;;4954910;28;20448;-73
2021/03/21 03:56:38;;;;;;;31.27;19.45;;;6.50;97.00;;;;;;4976459;28;20404;-74
2021/03/21 03:59:26;;;;;;;29.95;18.83;;;6.50;97.90;;;;;;4975022;28;20411;-74
2021/03/21 04:02:13;;;;;;;29.35;18.45;;;6.70;95.90;;;;;;4973535;28;20959;-74
2021/03/21 04:04:55;;;;;;;32.60;19.02;;;6.50;98.00;;;;;;4972958;28;20396;-73
2021/03/21 04:07:39;;;;;;;29.87;19.13;;;6.60;99.20;;;;;;4973687;28;20428;-74
2021/03/21 04:10:15;;;;;;;27.08;18.17;;;6.50;99.90;;;;;;4972887;28;20419;-74
2021/03/21 04:12:59;;;;;;;29.42;17.90;;;6.50;98.80;;;;;;4973254;28;20396;-74
2021/03/21 04:15:29;;;;;;;32.03;19.15;;;6.60;99.10;;;;;;4973996;28;20858;-75
2021/03/21 04:18:01;;;;;;;28.45;18.40;;;6.40;99.90;;;;;;4976843;28;20384;-73
2021/03/21 04:20:32;;;;;;;29.25;18.40;;;6.60;99.90;;;;;;4964275;28;20389;-74
2021/03/21 04:23:09;;;;;;;27.83;17.80;;;6.50;95.80;;;;;;4956269;28;20477;-74
2021/03/21 04:25:40;;;;;;;28.80;16.80;;;6.50;97.00;;;;;;4967800;28;20406;-74
2021/03/21 04:28:12;;;;;;;25.90;16.50;;;6.60;95.80;;;;;;4976449;28;20870;-74
2021/03/21 04:30:46;;;;;;;25.88;16.13;;;6.60;96.10;;;;;;4980342;28;20475;-74
2021/03/21 04:33:17;;;;;;;26.00;16.60;;;6.80;92.30;;;;;;4992530;28;20388;-74
2021/03/21 04:36:18;;;;;;;33.55;19.02;;;6.70;95.00;;;;;;4970154;28;20394;-74
2021/03/21 04:38:48;;;;;;;29.55;17.88;;;6.50;99.90;;;;;;4946179;28;20396;-74
2021/03/21 04:41:20;;;;;;;26.50;15.63;;;6.50;99.90;;;;;;4974413;28;20400;-74
2021/03/21 04:44:04;;;;;;;29.17;17.50;;;6.60;99.10;;;;;;4979009;28;20396;-74
2021/03/21 04:46:36;;;;;;;27.00;15.85;;;6.60;99.60;;;;;;4985917;28;20388;-74
2021/03/21 04:49:01;;;;;;;31.30;18.00;;;6.50;99.90;;;;;;4973807;28;20437;-75
2021/03/21 04:51:32;;;;;;;33.35;19.85;;;6.40;99.90;;;;;;4972562;28;20436;-75
2021/03/21 04:54:09;;;;;;;32.88;18.75;;;6.30;99.90;;;;;;4971087;28;20458;-74
2021/03/21 04:56:41;;;;;;;32.80;17.80;;;6.30;99.90;;;;;;4972608;28;20403;-74
2021/03/21 04:59:20;;;;;;;34.13;20.40;;;6.30;99.90;;;;;;4972253;28;20392;-76
2021/03/21 05:01:52;;;;;;;36.50;20.20;;;6.20;99.90;;;;;;4972350;28;20384;-74
2021/03/21 05:04:22;;;;;;;38.85;20.67;;;6.20;99.90;;;;;;4971825;28;20407;-74
2021/03/21 05:06:52;;;;;;;33.75;19.50;;;6.30;99.90;;;;;;4972510;28;20843;-74
2021/03/21 05:09:37;;;;;;;36.47;21.00;;;6.20;99.90;;;;;;4971778;28;20885;-74
2021/03/21 05:12:23;;;;;;;38.90;20.20;;;6.30;99.90;;;;;;4972295;28;20510;-74
2021/03/21 05:14:59;;;;;;;37.63;20.40;;;6.20;99.90;;;;;;4971928;28;20407;-74
2021/03/21 05:17:37;;;;;;;37.00;20.67;;;6.40;99.90;;;;;;4972775;28;20384;-76
2021/03/21 05:20:09;;;;;;;34.83;18.40;;;6.50;99.90;;;;;;4972057;28;20427;-75
2021/03/21 05:22:53;;;;;;;37.95;19.75;;;6.50;99.90;;;;;;4974305;28;20873;-76
2021/03/21 05:25:38;;;;;;;36.03;19.48;;;6.40;99.90;;;;;;4975657;28;20400;-74
2021/03/21 05:28:28;;;;;;;37.55;19.83;;;6.40;99.90;;;;;;4975756;28;20817;-75
2021/03/21 05:30:54;;;;;;;36.50;19.58;;;6.50;99.90;;;;;;4975675;28;20411;-75
2021/03/21 05:33:19;;;;;;;37.97;19.25;;;6.50;99.90;;;;;;4975790;28;20475;-74
2021/03/21 05:35:45;;;;;;;37.00;19.03;;;6.50;99.90;;;;;;4976017;28;20388;-73
2021/03/21 05:38:39;;;;;;;37.83;18.33;;;6.40;99.90;;;;;;4975513;28;20423;-73
2021/03/21 05:41:42;;;;;;;45.22;21.05;;;6.30;99.90;;;;;;4975752;28;20816;-74
2021/03/21 05:44:33;;;;;;;44.60;22.02;;;6.30;99.90;;;;;;4975262;28;20785;-74
2021/03/21 05:47:34;;;;;;;42.25;21.35;;;6.30;99.90;;;;;;4975726;28;20442;-74
2021/03/21 05:50:38;;;;;;;46.07;21.70;;;6.40;99.90;;;;;;4975191;28;20471;-74
2021/03/21 05:53:45;;;;;;;41.85;21.27;;;6.50;99.90;;;;;;4974999;28;20428;-74
2021/03/21 05:56:37;;;;;;;41.63;22.02;;;6.50;99.90;;;;;;4969562;28;20499;-74
2021/03/21 05:59:17;;;;;;;40.42;20.10;;;6.30;99.90;;;;;;4974927;28;20761;-75
2021/03/21 06:02:06;;;;;;;43.97;21.90;;;6.50;99.90;;;;;;4973900;28;20388;-74
2021/03/21 06:05:05;;;;;;;37.77;19.70;;;6.40;99.90;;;;;;4975856;28;20888;-74
2021/03/21 06:08:08;;;;;;;35.10;18.25;;;6.50;99.90;;;;;;4968086;28;20401;-74
2021/03/21 06:10:34;;;;;;;42.58;19.50;;;6.40;99.90;;;;;;4959375;28;20427;-74
2021/03/21 06:13:18;;;;;;;44.22;21.92;;;6.30;99.90;;;;;;4974377;28;20400;-75
2021/03/21 06:15:57;;;;;;;40.75;20.13;;;6.30;99.90;;;;;;4973156;28;20431;-75
2021/03/21 06:18:44;;;;;;;40.65;17.55;;;6.40;99.90;;;;;;4971178;28;20416;-75
2021/03/21 06:21:48;;;;;;;42.03;19.00;;;6.30;99.90;;;;;;4956571;28;20465;-74
2021/03/21 06:24:36;;;;;;;48.95;22.88;;;6.30;99.90;;;;;;4973636;28;20398;-73
2021/03/21 06:27:10;;;;;;;42.65;21.77;;;6.40;99.90;;;;;;4974594;28;20765;-72
2021/03/21 06:29:50;;;;;;;44.28;23.35;;;6.50;99.90;;;;;;4974015;28;20873;-73
2021/03/21 06:32:44;;;;;;;46.43;22.27;;;6.50;99.90;;;;;;4972969;28;20392;-72
2021/03/21 06:35:50;;;;;;;42.30;23.02;;;6.50;99.90;;;;;;4973996;28;20885;-72
2021/03/21 06:38:23;;;;;;;42.00;22.65;;;6.60;99.90;;;;;;4968436;28;20477;-71
2021/03/21 06:40:57;;;;;;;40.30;22.00;;;6.70;99.90;;;;;;4974112;28;20392;-71
2021/03/21 06:43:39;;;;;;;46.28;23.38;;;6.80;99.90;;;;;;4964083;28;20408;-72
2021/03/21 06:46:48;;;;;;;37.72;19.63;;;6.90;99.90;;;;;;4974149;28;20740;-71
2021/03/21 06:49:52;;;;;;;39.33;22.05;;;6.90;99.90;;;;;;4973771;28;20550;-71
2021/03/21 06:52:44;;;;;;;36.25;20.70;;;6.90;99.90;;;;;;4954630;28;20402;-72
2021/03/21 06:55:32;;;;;;;37.83;21.92;;;7.00;99.60;;;;;;4958359;28;20392;-72
2021/03/21 06:58:43;;;;;;;37.40;21.83;;;7.10;99.90;;;;;;4972597;28;20472;-72
2021/03/21 07:01:46;;;;;;;39.22;22.25;;;7.10;98.70;;;;;;4957151;28;21046;-73
2021/03/21 07:04:47;;;;;;;40.13;22.40;;;7.20;98.40;;;;;;4960715;28;20414;-73
2021/03/21 07:07:34;;;;;;;36.85;20.52;;;7.10;97.20;;;;;;4974351;28;20927;-72
2021/03/21 07:10:27;;;;;;;39.63;19.67;;;7.20;97.10;;;;;;4958469;28;20403;-72
2021/03/21 07:13:14;;;;;;;36.05;20.42;;;7.20;96.40;;;;;;4966738;28;20412;-72
2021/03/21 07:16:17;;;;;;;35.93;19.90;;;7.20;97.10;;;;;;4974227;28;20396;-72
2021/03/21 07:19:11;;;;;;;35.25;18.58;;;7.20;96.40;;;;;;4974104;28;20396;-72
2021/03/21 07:22:16;;;;;;;36.65;19.25;;;7.20;94.50;;;;;;4972683;28;20396;-73
2021/03/21 07:24:53;;;;;;;30.00;16.00;;;7.30;93.40;;;;;;4975515;28;20396;-71
2021/03/21 07:27:37;;;;;;;36.38;19.08;;;7.40;91.30;;;;;;4984915;28;20456;-71
2021/03/21 07:30:07;;;;;;;27.90;17.33;;;7.40;91.50;;;;;;4983146;28;20403;-71
2021/03/21 07:33:03;;;;;;;23.58;14.02;;;7.50;89.10;;;;;;4979254;28;20897;-73
2021/03/21 07:35:32;;;;;;;28.73;16.20;;;7.50;85.70;;;;;;4972924;28;20494;-73
2021/03/21 07:38:13;;;;;;;25.58;13.98;;;7.60;87.60;;;;;;4975201;28;20406;-73
2021/03/21 07:40:50;;;;;;;28.00;14.20;;;7.60;82.60;;;;;;4974155;28;20407;-75
2021/03/21 07:43:35;;;;;;;25.98;14.10;;;7.60;84.60;;;;;;4975283;28;20403;-77
2021/03/21 07:46:34;;;;;;;23.95;12.27;;;7.70;83.30;;;;;;4975023;28;20400;-77
2021/03/21 07:49:16;;;;;;;21.67;11.48;;;7.60;82.50;;;;;;4972925;28;20456;-77
2021/03/21 07:52:00;;;;;;;26.37;14.07;;;7.50;84.70;;;;;;4988152;28;20833;-74
2021/03/21 07:54:40;;;;;;;26.02;12.48;;;7.50;87.80;;;;;;4976171;28;20400;-74
2021/03/21 07:57:18;;;;;;;29.30;12.73;;;7.40;88.50;;;;;;4986059;28;20396;-74
2021/03/21 07:59:46;;;;;;;19.33;11.18;;;7.40;88.20;;;;;;4979531;28;20409;-74
2021/03/21 08:02:23;;;;;;;20.08;11.35;;;7.30;89.60;;;;;;4981965;28;20419;-76
2021/03/21 08:04:51;;;;;;;20.58;10.75;;;7.20;92.60;;;;;;4971862;28;20535;-76
2021/03/21 08:07:30;;;;;;;18.90;10.17;;;7.20;88.90;;;;;;4978086;28;20424;-77
2021/03/21 08:09:55;;;;;;;21.33;10.93;;;7.20;89.60;;;;;;4986210;28;20425;-78
2021/03/21 08:12:22;;;;;;;17.65;10.27;;;7.10;92.10;;;;;;4984868;28;20406;-78
2021/03/21 08:14:54;;;;;;;15.63;8.68;;;7.10;94.40;;;;;;4972017;28;20823;-77
2021/03/21 08:17:28;;;;;;;19.85;9.40;;;7.50;98.50;;;;;;4975416;28;20889;-77
2021/03/21 08:20:15;;;;;;;15.48;7.38;;;7.30;90.80;;;;;;4969835;28;20937;-78
2021/03/21 08:22:41;;;;;;;15.32;9.10;;;7.20;92.30;;;;;;4978799;28;20396;-75
2021/03/21 08:25:28;;;;;;;15.33;8.13;;;7.20;88.80;;;;;;4975937;28;20394;-77
2021/03/21 08:27:55;;;;;;;12.00;7.43;;;7.30;86.80;;;;;;4967515;28;20408;-76
2021/03/21 08:30:24;;;;;;;15.53;7.40;;;7.30;81.50;;;;;;4977740;28;20410;-76
2021/03/21 08:32:55;;;;;;;18.20;8.73;;;7.30;84.10;;;;;;4983474;28;20421;-75
2021/03/21 08:35:30;;;;;;;13.65;7.53;;;7.50;81.20;;;;;;4977673;28;20392;-74
2021/03/21 08:38:01;;;;;;;13.20;8.40;;;7.70;81.30;;;;;;4981359;28;20404;-77
2021/03/21 08:40:32;;;;;;;14.43;8.00;;;7.60;79.20;;;;;;4970716;28;20444;-76
2021/03/21 08:43:13;;;;;;;17.40;8.07;;;7.60;79.70;;;;;;4974489;28;20400;-77
2021/03/21 08:45:43;;;;;;;13.63;7.00;;;7.60;78.70;;;;;;4970585;28;20412;-76
2021/03/21 08:48:16;;;;;;;13.40;7.53;;;7.70;77.00;;;;;;4972170;28;20463;-77
2021/03/21 08:50:45;;;;;;;12.30;7.40;;;7.80;74.70;;;;;;4972061;28;20523;-77
2021/03/21 08:53:31;;;;;;;12.98;7.03;;;7.90;71.80;;;;;;4972712;28;20392;-75
2021/03/21 08:56:17;;;;;;;10.68;7.00;;;7.90;71.70;;;;;;4971249;28;20408;-75
2021/03/21 08:58:45;;;;;;;9.70;6.40;;;7.70;80.10;;;;;;4979628;28;20408;-75
2021/03/21 09:01:15;;;;;;;10.60;5.55;;;7.40;83.90;;;;;;4989361;28;20406;-76
2021/03/21 09:03:42;;;;;;;8.60;4.77;;;7.30;81.80;;;;;;4972264;28;20766;-76
2021/03/21 09:06:25;;;;;;;11.10;4.55;;;7.20;81.10;;;;;;4973659;28;20418;-76
2021/03/21 09:08:50;;;;;;;10.13;4.57;;;7.10;78.20;;;;;;4953185;28;20492;-76
2021/03/21 09:11:43;;;;;;;10.23;4.23;;;7.10;80.70;;;;;;4982634;28;20510;-75
2021/03/21 09:14:14;;;;;;;8.50;4.10;;;7.20;74.80;;;;;;4966654;28;20383;-77
2021/03/21 09:17:03;;;;;;;11.05;4.28;;;7.20;66.50;;;;;;4976077;28;20396;-77
2021/03/21 09:19:35;;;;;;;15.65;3.53;;;7.30;63.90;;;;;;4975952;28;20412;-78
2021/03/21 09:22:28;;;;;;;10.18;3.28;;;7.30;56.70;;;;;;4986083;28;20520;-77
2021/03/21 09:25:04;;;;;;;17.20;3.70;;;7.50;57.90;;;;;;4979682;28;20390;-78
2021/03/21 09:27:39;;;;;;;12.20;2.22;;;7.60;55.70;;;;;;4969939;28;20800;-78
2021/03/21 09:30:28;;;;;;;10.43;2.60;;;7.70;56.50;;;;;;4972015;28;20450;-78
2021/03/21 09:32:59;;;;;;;14.25;2.33;;;7.80;52.30;;;;;;4962437;28;20415;-78
2021/03/21 09:35:50;;;;;;;15.68;3.05;;;7.80;53.90;;;;;;4968138;28;20465;-78
2021/03/21 09:38:27;;;;;;;12.23;3.10;;;7.90;54.30;;;;;;4967580;28;20400;-78
2021/03/21 09:41:11;;;;;;;12.40;3.15;;;7.80;49.40;;;;;;4974307;28;20920;-78
2021/03/21 09:43:39;;;;;;;15.07;3.70;;;7.90;48.10;;;;;;4970705;28;20487;-77
2021/03/21 09:46:05;;;;;;;10.88;3.45;;;7.90;47.20;;;;;;4964276;28;20477;-79
2021/03/21 09:48:53;;;;;;;12.00;3.53;;;7.90;46.00;;;;;;4966936;28;20455;-77
2021/03/21 09:51:27;;;;;;;15.20;3.92;;;7.80;45.20;;;;;;4966512;28;20473;-77
2021/03/21 09:54:15;;;;;;;10.75;2.70;;;7.90;46.30;;;;;;4959753;28;20432;-78
2021/03/21 09:57:02;;;;;;;13.63;3.67;;;7.90;46.70;;;;;;4968180;28;20881;-77
2021/03/21 09:59:36;;;;;;;15.85;3.90;;;7.70;48.70;;;;;;4971111;28;20889;-74
2021/03/21 10:02:16;;;;;;;11.75;2.90;;;7.90;50.10;;;;;;4969334;28;20404;-75
2021/03/21 10:04:51;;;;;;;17.98;4.20;;;7.90;47.80;;;;;;4968128;28;20396;-75
2021/03/21 10:07:43;;;;;;;17.27;3.22;;;7.90;47.20;;;;;;4971216;28;20837;-75
2021/03/21 10:10:18;;;;;;;17.98;3.60;;;7.90;48.30;;;;;;4974326;28;20861;-76
2021/03/21 10:12:45;;;;;;;16.85;3.53;;;8.00;49.80;;;;;;4975667;28;20415;-76
2021/03/21 10:15:18;;;;;;;16.17;3.20;;;8.20;45.30;;;;;;4976563;28;20426;-76
2021/03/21 10:17:49;;;;;;;20.95;4.20;;;8.20;44.30;;;;;;4983486;28;20885;-77
2021/03/21 10:20:17;;;;;;;25.98;7.28;;;8.30;42.10;;;;;;4981698;28;20415;-77
2021/03/21 10:22:42;;;;;;;15.82;4.40;;;8.40;43.00;;;;;;4976698;28;20804;-77
2021/03/21 10:25:12;;;;;;;17.03;4.13;;;8.40;36.20;;;;;;4976401;28;20600;-79
2021/03/21 10:27:51;;;;;;;17.35;3.78;;;8.50;33.80;;;;;;4977799;28;20400;-78
2021/03/21 10:30:30;;;;;;;20.63;3.63;;;8.70;32.50;;;;;;4977953;28;20394;-74
2021/03/21 10:32:59;;;;;;;15.45;3.30;;;8.60;33.50;;;;;;4964225;28;20404;-73
2021/03/21 10:35:24;;;;;;;15.10;3.40;;;8.70;33.10;;;;;;4975878;28;20400;-74
2021/03/21 10:37:51;;;;;;;14.50;4.50;;;8.50;33.50;;;;;;4974141;28;20443;-74
2021/03/21 10:40:22;;;;;;;9.82;2.67;;;8.50;33.10;;;;;;4972689;28;20400;-74
2021/03/21 10:42:54;;;;;;;12.93;3.45;;;8.50;33.70;;;;;;4957367;28;20416;-74
2021/03/21 10:45:35;;;;;;;16.45;4.53;;;8.50;34.50;;;;;;4962483;28;20399;-73
2021/03/21 10:48:04;;;;;;;26.80;4.32;;;8.70;34.40;;;;;;4976141;28;20403;-76
2021/03/21 10:50:29;;;;;;;17.40;3.70;;;8.50;35.20;;;;;;4976037;28;20412;-74
2021/03/21 10:53:20;;;;;;;19.00;3.73;;;8.60;35.20;;;;;;4974349;28;20944;-75
2021/03/21 10:56:04;;;;;;;16.25;4.85;;;8.50;36.80;;;;;;4973425;28;20400;-75
2021/03/21 10:58:35;;;;;;;18.35;4.13;;;8.40;37.60;;;;;;4974100;28;20909;-77
2021/03/21 11:01:24;;;;;;;30.60;6.88;;;8.30;38.90;;;;;;4973673;28;20416;-74
2021/03/21 11:03:58;;;;;;;28.02;6.95;;;8.40;39.00;;;;;;4971679;28;20505;-74
2021/03/21 11:06:26;;;;;;;34.25;6.60;;;8.60;39.90;;;;;;4965743;28;20893;-74
2021/03/21 11:08:52;;;;;;;22.05;6.50;;;8.70;38.00;;;;;;4971483;28;20395;-73
2021/03/21 11:11:42;;;;;;;22.30;4.68;;;8.70;35.10;;;;;;4974076;28;20825;-75
2021/03/21 11:14:24;;;;;;;24.15;4.82;;;8.60;34.50;;;;;;4969230;28;20874;-74
2021/03/21 11:17:01;;;;;;;28.13;5.30;;;8.50;33.40;;;;;;4974396;28;20442;-76
2021/03/21 11:19:34;;;;;;;17.00;4.80;;;8.40;34.10;;;;;;4973211;28;20750;-75
2021/03/21 11:22:10;;;;;;;27.30;5.88;;;8.40;34.00;;;;;;4973733;28;20404;-74
2021/03/21 11:24:38;;;;;;;24.63;6.20;;;8.30;33.90;;;;;;4971121;28;20402;-74
2021/03/21 11:27:23;;;;;;;21.77;6.30;;;8.50;33.40;;;;;;4974121;28;20427;-74
2021/03/21 11:29:48;;;;;;;24.33;6.13;;;8.50;32.90;;;;;;4971973;28;20506;-75
2021/03/21 11:32:25;;;;;;;35.00;7.10;;;8.50;33.20;;;;;;4973953;28;20520;-75
2021/03/21 11:35:22;;;;;;;25.55;4.90;;;8.60;32.80;;;;;;4973140;28;20428;-74
2021/03/21 11:37:48;;;;;;;26.63;5.87;;;8.30;33.40;;;;;;4961500;28;20468;-75
2021/03/21 11:40:20;;;;;;;27.47;5.93;;;8.30;34.30;;;;;;4973128;28;20400;-74
2021/03/21 11:42:48;;;;;;;33.95;5.70;;;8.40;34.30;;;;;;4971964;28;20403;-74
2021/03/21 11:45:17;;;;;;;31.55;5.05;;;8.40;34.20;;;;;;4973309;28;20405;-76
2021/03/21 11:47:48;;;;;;;27.43;5.70;;;8.40;33.10;;;;;;4973564;28;20798;-74
2021/03/21 11:50:27;;;;;;;31.95;5.90;;;8.60;32.40;;;;;;4967649;28;20430;-76
2021/03/21 11:52:54;;;;;;;29.15;6.30;;;8.80;32.20;;;;;;4969490;28;20438;-76
2021/03/21 11:55:27;;;;;;;20.00;4.90;;;9.00;31.00;;;;;;4965241;28;20398;-77
2021/03/21 11:58:04;;;;;;;26.20;3.67;;;8.80;28.60;;;;;;4959223;28;20407;-75
2021/03/21 12:00:34;;;;;;;23.40;5.13;;;8.90;28.00;;;;;;4971855;28;20412;-72
2021/03/21 12:03:17;;;;;;;35.83;4.30;;;9.00;26.50;;;;;;4972394;28;20399;-75
2021/03/21 12:05:44;;;;;;;23.20;5.40;;;9.10;27.10;;;;;;4972846;28;20421;-74
2021/03/21 12:08:13;;;;;;;24.50;5.85;;;9.30;26.00;;;;;;4973362;28;20435;-74
2021/03/21 12:10:41;;;;;;;22.63;5.35;;;9.40;24.60;;;;;;4973092;28;20773;-73
2021/03/21 12:13:30;;;;;;;21.88;5.82;;;9.40;24.30;;;;;;4987668;28;20411;-74
2021/03/21 12:15:56;;;;;;;28.55;8.65;;;9.10;25.30;;;;;;4973600;28;20384;-73
2021/03/21 12:18:29;;;;;;;28.35;7.18;;;9.10;27.30;;;;;;4973181;28;20479;-74
2021/03/21 12:21:12;;;;;;;36.63;8.25;;;9.10;28.20;;;;;;4974455;28;20487;-72
2021/03/21 12:23:43;;;;;;;30.70;7.30;;;9.20;28.30;;;;;;4973828;28;20766;-72
2021/03/21 12:26:22;;;;;;;29.50;6.72;;;9.40;27.00;;;;;;4977345;28;20400;-73
2021/03/21 12:28:53;;;;;;;29.13;5.20;;;9.50;26.00;;;;;;4976213;28;20393;-73
2021/03/21 12:31:25;;;;;;;26.97;6.37;;;9.50;23.30;;;;;;4975916;28;20518;-74
2021/03/21 12:33:51;;;;;;;24.55;5.82;;;9.60;23.90;;;;;;4971705;28;20388;-74
2021/03/21 12:36:24;;;;;;;26.00;5.50;;;9.50;24.10;;;;;;4973136;28;20403;-73
2021/03/21 12:38:57;;;;;;;28.73;6.10;;;9.30;23.50;;;;;;4973144;28;20450;-73
2021/03/21 12:41:32;;;;;;;26.23;5.25;;;9.30;24.10;;;;;;4973523;28;20415;-73
2021/03/21 12:44:24;;;;;;;24.67;4.15;;;9.30;22.40;;;;;;4968831;28;20408;-73
2021/03/21 12:46:57;;;;;;;22.50;4.90;;;9.10;23.20;;;;;;4953718;28;20791;-73
2021/03/21 12:49:38;;;;;;;32.70;6.47;;;9.00;22.70;;;;;;4953983;28;20484;-73
2021/03/21 12:52:13;;;;;;;28.23;6.85;;;9.20;23.80;;;;;;4967008;28;20414;-73
2021/03/21 12:54:41;;;;;;;29.63;5.75;;;9.40;23.30;;;;;;4972362;28;20822;-73
2021/03/21 12:57:11;;;;;;;33.92;6.60;;;9.40;23.60;;;;;;4974312;28;20396;-72
2021/03/21 12:59:39;;;;;;;23.02;4.93;;;9.40;24.10;;;;;;4980345;28;20422;-74
2021/03/21 13:02:12;;;;;;;27.90;5.93;;;9.20;23.60;;;;;;4980607;28;20392;-73
2021/03/21 13:04:37;;;;;;;28.08;5.80;;;9.20;23.10;;;;;;4978918;28;20470;-73
2021/03/21 13:07:03;;;;;;;28.02;4.65;;;9.20;23.50;;;;;;4974208;28;20396;-72
2021/03/21 13:09:28;;;;;;;23.08;4.55;;;9.10;21.80;;;;;;4972989;28;20404;-72
2021/03/21 13:11:54;;;;;;;24.23;5.10;;;9.20;21.90;;;;;;4972473;28;20864;-73
2021/03/21 13:14:19;;;;;;;29.80;5.30;;;9.40;21.20;;;;;;4972683;28;20419;-73
2021/03/21 13:16:45;;;;;;;26.37;5.60;;;9.40;21.20;;;;;;4972139;28;20396;-72
2021/03/21 13:19:11;;;;;;;27.20;5.50;;;9.40;21.60;;;;;;4972261;28;20423;-75
2021/03/21 13:21:36;;;;;;;27.17;6.40;;;9.50;22.40;;;;;;4973114;28;20844;-75
2021/03/21 13:24:03;;;;;;;27.30;6.30;;;9.50;23.10;;;;;;4973099;28;20389;-75
2021/03/21 13:26:28;;;;;;;27.25;5.20;;;9.50;22.00;;;;;;4973129;28;20493;-75